Time;durP1;ratioP1;P1;durP2;ratioP2;P2;SDS_P1;SDS_P2;PMS_P1;PMS_P2;Temp;Humidity;BMP_temperature;BMP_pressure;BME280_temperature;BME280_humidity;BME280_pressure;Samples;Min_cycle;Max_cycle;Signal;HPM_P1;HPM_P2
2022/03/14 00:01:51;;;;;;;;;2.00;2.00;;;;;;;;5012409;28;47567;-70
2022/03/14 00:04:17;;;;;;;;;3.00;2.75;;;;;;;;5011014;28;46245;-70
2022/03/14 00:06:43;;;;;;;;;2.00;2.00;;;;;;;;5011391;28;45703;-70
2022/03/14 00:09:09;;;;;;;;;3.00;1.75;;;;;;;;5015512;28;45390;-69
2022/03/14 00:11:35;;;;;;;;;2.50;2.50;;;;;;;;5013149;28;46539;-71
2022/03/14 00:14:03;;;;;;;;;4.00;1.75;;;;;;;;5010642;28;45521;-70
2022/03/14 00:16:39;;;;;;;;;2.00;2.00;;;;;;;;5002833;28;45821;-72
2022/03/14 00:19:06;;;;;;;;;2.75;2.00;;;;;;;;5007184;28;45622;-72
2022/03/14 00:21:34;;;;;;;;;1.25;1.00;;;;;;;;5014322;28;46663;-71
2022/03/14 00:23:59;;;;;;;;;2.00;2.00;;;;;;;;5011457;28;45746;-70
2022/03/14 00:26:26;;;;;;;;;2.75;2.75;;;;;;;;5012019;28;45510;-71
2022/03/14 00:28:51;;;;;;;;;4.00;4.00;;;;;;;;5014644;28;45556;-70
2022/03/14 00:31:16;;;;;;;;;2.25;1.00;;;;;;;;5011924;28;45389;-71
2022/03/14 00:33:42;;;;;;;;;4.00;2.00;;;;;;;;5011246;28;45389;-70
2022/03/14 00:36:08;;;;;;;;;2.75;2.00;;;;;;;;5008737;28;45390;-69
2022/03/14 00:38:34;;;;;;;;;3.00;1.50;;;;;;;;5012402;28;45693;-70
2022/03/14 00:40:59;;;;;;;;;0.00;0.00;;;;;;;;5011910;28;46158;-70
2022/03/14 00:43:25;;;;;;;;;1.75;1.75;;;;;;;;5012292;28;45501;-71
2022/03/14 00:45:50;;;;;;;;;2.00;2.00;;;;;;;;5011649;28;45591;-70
2022/03/14 00:48:15;;;;;;;;;2.00;2.00;;;;;;;;5013022;28;45401;-71
2022/03/14 00:50:41;;;;;;;;;2.25;1.25;;;;;;;;5013172;28;45419;-70
2022/03/14 00:53:08;;;;;;;;;1.25;1.00;;;;;;;;5010010;28;45549;-71
2022/03/14 00:55:33;;;;;;;;;2.00;2.00;;;;;;;;5009052;28;45480;-71
2022/03/14 00:57:58;;;;;;;;;1.75;0.75;;;;;;;;5009894;28;45492;-70
2022/03/14 01:00:24;;;;;;;;;1.00;1.00;;;;;;;;5005677;28;47627;-71
2022/03/14 01:02:50;;;;;;;;;3.00;2.00;;;;;;;;5006395;28;45971;-70
2022/03/14 01:05:15;;;;;;;;;1.50;1.50;;;;;;;;5011542;28;45319;-70
2022/03/14 01:07:41;;;;;;;;;1.00;1.00;;;;;;;;5012178;28;45312;-70
2022/03/14 01:10:06;;;;;;;;;4.00;1.00;;;;;;;;5000628;28;48931;-70
2022/03/14 01:12:32;;;;;;;;;3.50;2.00;;;;;;;;5002849;28;45441;-71
2022/03/14 01:14:58;;;;;;;;;3.00;2.00;;;;;;;;5008852;28;45380;-70
2022/03/14 01:17:23;;;;;;;;;3.50;2.25;;;;;;;;5011266;28;45454;-70
2022/03/14 01:19:48;;;;;;;;;2.00;2.00;;;;;;;;5010813;28;47235;-70
2022/03/14 01:22:13;;;;;;;;;4.00;2.00;;;;;;;;5001056;28;46056;-70
2022/03/14 01:24:39;;;;;;;;;2.00;2.00;;;;;;;;5005389;28;45546;-70
2022/03/14 01:27:07;;;;;;;;;2.00;2.00;;;;;;;;5004749;28;45767;-70
2022/03/14 01:29:34;;;;;;;;;0.50;0.50;;;;;;;;5011986;28;46547;-70
2022/03/14 01:31:59;;;;;;;;;3.00;2.00;;;;;;;;5011267;28;45399;-69
2022/03/14 01:34:24;;;;;;;;;3.00;3.00;;;;;;;;5011555;28;46082;-70
2022/03/14 01:36:50;;;;;;;;;4.00;2.00;;;;;;;;5011976;28;45394;-70
2022/03/14 01:39:15;;;;;;;;;2.25;1.75;;;;;;;;5013596;28;45524;-70
2022/03/14 01:41:40;;;;;;;;;2.00;2.00;;;;;;;;5013761;28;45425;-69
2022/03/14 01:44:05;;;;;;;;;3.00;1.00;;;;;;;;5011382;28;45516;-69
2022/03/14 01:46:31;;;;;;;;;3.00;2.00;;;;;;;;5010980;28;45414;-70
2022/03/14 01:48:56;;;;;;;;;1.25;1.25;;;;;;;;5011433;28;46593;-69
2022/03/14 01:51:23;;;;;;;;;4.00;1.00;;;;;;;;5012378;28;45374;-69
2022/03/14 01:53:49;;;;;;;;;4.50;1.75;;;;;;;;4996990;28;45589;-70
2022/03/14 01:56:14;;;;;;;;;2.25;2.00;;;;;;;;5009460;28;45391;-68
2022/03/14 01:58:40;;;;;;;;;1.00;1.00;;;;;;;;5010441;28;45799;-70
2022/03/14 02:01:06;;;;;;;;;2.00;1.00;;;;;;;;5011054;28;45465;-69
2022/03/14 02:03:31;;;;;;;;;3.00;2.00;;;;;;;;5010974;28;45393;-70
2022/03/14 02:05:56;;;;;;;;;2.75;1.25;;;;;;;;5012871;28;45468;-69
2022/03/14 02:08:22;;;;;;;;;1.00;1.00;;;;;;;;5008313;28;48380;-69
2022/03/14 02:10:47;;;;;;;;;1.00;0.00;;;;;;;;5009110;28;45597;-70
2022/03/14 02:13:12;;;;;;;;;1.00;1.00;;;;;;;;5010419;28;45498;-70
2022/03/14 02:15:39;;;;;;;;;2.00;1.00;;;;;;;;5009014;28;45595;-68
2022/03/14 02:18:05;;;;;;;;;1.50;1.00;;;;;;;;5011846;28;47567;-69
2022/03/14 02:20:30;;;;;;;;;1.00;1.00;;;;;;;;5026947;28;46321;-69
2022/03/14 02:22:56;;;;;;;;;1.00;1.00;;;;;;;;5010266;28;45570;-69
2022/03/14 02:25:21;;;;;;;;;1.00;1.00;;;;;;;;5011543;28;45434;-69
2022/03/14 02:27:46;;;;;;;;;3.00;3.00;;;;;;;;5011566;28;45906;-70
2022/03/14 02:30:12;;;;;;;;;1.75;1.00;;;;;;;;5012712;28;45418;-69
2022/03/14 02:32:41;;;;;;;;;0.00;0.00;;;;;;;;5009961;28;45491;-69
2022/03/14 02:35:06;;;;;;;;;1.00;1.00;;;;;;;;5012143;28;45311;-69
2022/03/14 02:37:31;;;;;;;;;5.00;1.00;;;;;;;;5012503;28;47536;-69
2022/03/14 02:39:57;;;;;;;;;2.25;1.25;;;;;;;;5013171;28;45354;-69
2022/03/14 02:42:22;;;;;;;;;3.00;1.00;;;;;;;;5012262;28;45824;-69
2022/03/14 02:44:47;;;;;;;;;0.75;0.75;;;;;;;;5012114;28;45561;-69
2022/03/14 02:47:13;;;;;;;;;3.75;3.75;;;;;;;;5010471;28;48033;-67
2022/03/14 02:49:38;;;;;;;;;1.25;1.25;;;;;;;;5011570;28;45472;-69
2022/03/14 02:52:03;;;;;;;;;5.00;2.00;;;;;;;;5012079;28;45380;-69
2022/03/14 02:54:29;;;;;;;;;5.25;4.75;;;;;;;;5007895;28;45376;-69
2022/03/14 02:56:54;;;;;;;;;4.00;4.00;;;;;;;;5026036;28;47355;-69
2022/03/14 02:59:20;;;;;;;;;3.00;3.00;;;;;;;;5007356;28;46059;-69
2022/03/14 03:01:45;;;;;;;;;3.00;2.00;;;;;;;;5008400;28;45500;-69
2022/03/14 03:04:10;;;;;;;;;3.00;3.00;;;;;;;;5011694;28;45541;-69
2022/03/14 03:06:36;;;;;;;;;5.00;3.75;;;;;;;;5009101;28;46574;-69
2022/03/14 03:09:04;;;;;;;;;7.75;7.00;;;;;;;;5013543;28;45574;-69
2022/03/14 03:11:30;;;;;;;;;3.50;3.50;;;;;;;;5009968;28;45560;-69
2022/03/14 03:13:56;;;;;;;;;4.25;3.25;;;;;;;;5009484;28;46171;-69
2022/03/14 03:16:22;;;;;;;;;5.00;4.00;;;;;;;;5010753;28;47411;-69
2022/03/14 03:18:47;;;;;;;;;5.50;1.00;;;;;;;;5009576;28;45442;-68
2022/03/14 03:21:12;;;;;;;;;3.00;2.00;;;;;;;;5011951;28;45525;-69
2022/03/14 03:23:41;;;;;;;;;2.00;2.00;;;;;;;;5011260;28;45582;-69
2022/03/14 03:26:06;;;;;;;;;3.00;2.00;;;;;;;;5009838;28;47756;-68
2022/03/14 03:28:35;;;;;;;;;5.25;3.50;;;;;;;;5011880;28;45402;-67
2022/03/14 03:31:05;;;;;;;;;2.50;2.25;;;;;;;;5009778;28;45651;-68
2022/03/14 03:33:30;;;;;;;;;1.25;1.25;;;;;;;;5009991;28;45560;-68
2022/03/14 03:35:55;;;;;;;;;1.75;1.75;;;;;;;;5010772;28;47151;-69
2022/03/14 03:38:20;;;;;;;;;2.75;1.75;;;;;;;;5009946;28;46090;-69
2022/03/14 03:40:46;;;;;;;;;2.00;0.75;;;;;;;;5008774;28;47785;-68
2022/03/14 03:43:11;;;;;;;;;5.25;3.50;;;;;;;;5007972;28;45620;-68
2022/03/14 03:45:36;;;;;;;;;2.75;2.00;;;;;;;;5009774;28;47791;-69
2022/03/14 03:48:02;;;;;;;;;3.00;3.00;;;;;;;;5010130;28;45463;-67
2022/03/14 03:50:27;;;;;;;;;2.00;2.00;;;;;;;;5011113;28;45433;-69
2022/03/14 03:52:52;;;;;;;;;3.00;2.00;;;;;;;;5008826;28;45462;-69
2022/03/14 03:55:17;;;;;;;;;3.25;2.00;;;;;;;;5009367;28;47650;-69
2022/03/14 03:57:43;;;;;;;;;1.50;1.25;;;;;;;;5009598;28;45422;-70
2022/03/14 04:00:12;;;;;;;;;1.00;1.00;;;;;;;;5010279;28;45473;-69
2022/03/14 04:02:39;;;;;;;;;1.00;1.00;;;;;;;;5012024;28;45538;-69
2022/03/14 04:05:05;;;;;;;;;3.00;2.25;;;;;;;;5010709;28;46938;-69
2022/03/14 04:07:32;;;;;;;;;3.50;2.00;;;;;;;;5010152;28;45500;-70
2022/03/14 04:09:58;;;;;;;;;3.00;2.00;;;;;;;;5009085;28;45417;-67
2022/03/14 04:12:25;;;;;;;;;3.00;3.00;;;;;;;;5012216;28;45403;-69
2022/03/14 04:14:51;;;;;;;;;3.00;3.00;;;;;;;;5014343;28;46932;-69
2022/03/14 04:17:16;;;;;;;;;3.75;3.75;;;;;;;;5013255;28;45780;-68
2022/03/14 04:19:42;;;;;;;;;2.00;2.00;;;;;;;;5012170;28;45765;-69
2022/03/14 04:22:08;;;;;;;;;2.00;2.00;;;;;;;;5012556;28;46156;-69
2022/03/14 04:24:34;;;;;;;;;3.50;2.00;;;;;;;;5012349;28;48836;-70
2022/03/14 04:26:59;;;;;;;;;2.00;2.00;;;;;;;;5014879;28;45650;-70
2022/03/14 04:29:25;;;;;;;;;3.25;1.25;;;;;;;;5012141;28;45469;-69
2022/03/14 04:31:50;;;;;;;;;3.50;2.00;;;;;;;;5012402;28;45507;-69
2022/03/14 04:34:15;;;;;;;;;3.50;2.00;;;;;;;;5013033;28;45726;-69
2022/03/14 04:36:41;;;;;;;;;3.25;2.25;;;;;;;;5012563;28;45483;-69
2022/03/14 04:39:06;;;;;;;;;2.25;2.25;;;;;;;;5014116;28;45446;-69
2022/03/14 04:41:36;;;;;;;;;3.75;2.50;;;;;;;;5014052;28;45339;-69
2022/03/14 04:44:01;;;;;;;;;4.00;3.00;;;;;;;;5011132;28;47799;-69
2022/03/14 04:46:27;;;;;;;;;1.25;1.25;;;;;;;;5009201;28;46022;-69
2022/03/14 04:48:55;;;;;;;;;1.50;1.50;;;;;;;;5007139;28;45505;-69
2022/03/14 04:51:20;;;;;;;;;3.00;3.00;;;;;;;;5013166;28;45600;-69
2022/03/14 04:53:45;;;;;;;;;3.75;1.25;;;;;;;;5013235;28;45614;-69
2022/03/14 04:56:10;;;;;;;;;1.50;1.00;;;;;;;;5015933;28;45370;-69
2022/03/14 04:58:36;;;;;;;;;2.50;2.50;;;;;;;;5011872;28;45516;-69
2022/03/14 05:01:01;;;;;;;;;3.00;2.00;;;;;;;;5013560;28;45441;-69
2022/03/14 05:03:26;;;;;;;;;1.75;1.75;;;;;;;;5003025;28;45786;-69
2022/03/14 05:05:51;;;;;;;;;5.00;3.00;;;;;;;;5011631;28;45390;-67
2022/03/14 05:08:20;;;;;;;;;6.50;4.00;;;;;;;;5011982;28;45510;-68
2022/03/14 05:10:46;;;;;;;;;3.50;3.50;;;;;;;;5013430;28;45817;-69
2022/03/14 05:13:11;;;;;;;;;6.00;4.25;;;;;;;;5013449;28;46149;-68
2022/03/14 05:15:37;;;;;;;;;4.00;2.25;;;;;;;;5011309;28;46106;-69
2022/03/14 05:18:02;;;;;;;;;3.00;3.00;;;;;;;;5015540;28;45318;-68
2022/03/14 05:20:28;;;;;;;;;3.00;3.00;;;;;;;;5012330;28;45444;-69
2022/03/14 05:22:53;;;;;;;;;3.00;2.25;;;;;;;;5010601;28;47919;-68
2022/03/14 05:25:19;;;;;;;;;3.25;3.25;;;;;;;;5012409;28;45946;-68
2022/03/14 05:27:45;;;;;;;;;2.00;2.00;;;;;;;;5012053;28;45520;-68
2022/03/14 05:30:10;;;;;;;;;3.75;2.00;;;;;;;;5014036;28;45413;-69
2022/03/14 05:32:36;;;;;;;;;2.25;1.75;;;;;;;;5008237;28;46487;-68
2022/03/14 05:35:01;;;;;;;;;3.00;3.00;;;;;;;;5006865;28;45530;-70
2022/03/14 05:37:26;;;;;;;;;5.25;3.50;;;;;;;;5010762;28;45363;-68
2022/03/14 05:39:52;;;;;;;;;2.00;2.00;;;;;;;;5012092;28;45551;-68
2022/03/14 05:42:17;;;;;;;;;3.25;2.00;;;;;;;;5011809;28;47635;-69
2022/03/14 05:44:43;;;;;;;;;2.00;2.00;;;;;;;;5012259;28;45474;-68
2022/03/14 05:47:09;;;;;;;;;3.25;3.25;;;;;;;;5009912;28;45538;-69
2022/03/14 05:49:34;;;;;;;;;2.25;2.25;;;;;;;;5004197;28;45394;-68
2022/03/14 05:51:59;;;;;;;;;8.00;4.00;;;;;;;;5010961;28;46253;-68
2022/03/14 05:54:24;;;;;;;;;5.00;5.00;;;;;;;;5012847;28;45739;-69
2022/03/14 05:56:50;;;;;;;;;5.50;3.00;;;;;;;;5013490;28;45396;-68
2022/03/14 05:59:15;;;;;;;;;3.75;3.25;;;;;;;;5012630;28;45521;-69
2022/03/14 06:01:41;;;;;;;;;1.25;1.00;;;;;;;;5010789;28;47524;-71
2022/03/14 06:04:06;;;;;;;;;6.25;4.00;;;;;;;;5011682;28;45915;-70
2022/03/14 06:06:31;;;;;;;;;4.25;4.25;;;;;;;;5012487;28;45389;-68
2022/03/14 06:08:56;;;;;;;;;7.75;4.25;;;;;;;;5013671;28;45487;-68
2022/03/14 06:11:22;;;;;;;;;3.25;3.25;;;;;;;;5009657;28;46472;-68
2022/03/14 06:13:47;;;;;;;;;5.25;4.00;;;;;;;;5011836;28;45430;-68
2022/03/14 06:16:13;;;;;;;;;5.00;4.00;;;;;;;;5009270;28;45465;-68
2022/03/14 06:18:39;;;;;;;;;3.50;3.00;;;;;;;;5010365;28;45598;-68
2022/03/14 06:21:04;;;;;;;;;4.00;4.00;;;;;;;;5014039;28;45374;-68
2022/03/14 06:23:29;;;;;;;;;8.00;5.00;;;;;;;;5007727;28;45474;-69
2022/03/14 06:25:54;;;;;;;;;5.00;4.25;;;;;;;;5011441;28;45422;-70
2022/03/14 06:28:21;;;;;;;;;9.00;4.50;;;;;;;;5010378;28;47186;-69
2022/03/14 06:30:46;;;;;;;;;7.00;5.25;;;;;;;;5007582;28;45922;-68
2022/03/14 06:33:11;;;;;;;;;12.50;8.00;;;;;;;;5003912;28;45409;-68
2022/03/14 06:35:37;;;;;;;;;9.00;9.00;;;;;;;;5009231;28;45282;-68
2022/03/14 06:38:03;;;;;;;;;9.50;9.00;;;;;;;;5009906;28;45455;-69
2022/03/14 06:40:28;;;;;;;;;8.50;7.25;;;;;;;;5016732;28;46621;-70
2022/03/14 06:42:53;;;;;;;;;7.50;7.50;;;;;;;;5010320;28;45810;-69
2022/03/14 06:45:22;;;;;;;;;7.75;7.00;;;;;;;;5011927;28;45461;-68
2022/03/14 06:47:47;;;;;;;;;9.50;8.00;;;;;;;;5008776;28;45706;-68
2022/03/14 06:50:14;;;;;;;;;5.00;3.50;;;;;;;;5008504;28;45580;-68
2022/03/14 06:52:39;;;;;;;;;9.00;8.00;;;;;;;;5006037;28;46658;-68
2022/03/14 06:55:05;;;;;;;;;6.25;6.25;;;;;;;;5006459;28;45448;-67
2022/03/14 06:57:30;;;;;;;;;9.75;8.50;;;;;;;;4996746;28;45911;-69
2022/03/14 06:59:56;;;;;;;;;5.25;5.25;;;;;;;;5010901;28;47397;-68
2022/03/14 07:02:24;;;;;;;;;7.50;4.00;;;;;;;;5000387;28;45683;-69
2022/03/14 07:04:49;;;;;;;;;8.50;8.25;;;;;;;;5003737;28;45357;-69
2022/03/14 07:07:14;;;;;;;;;7.75;7.75;;;;;;;;5002967;28;45917;-69
2022/03/14 07:09:39;;;;;;;;;7.75;7.00;;;;;;;;5005345;28;46112;-69
2022/03/14 07:12:05;;;;;;;;;9.50;8.00;;;;;;;;5010952;28;45514;-70
2022/03/14 07:14:30;;;;;;;;;6.50;4.75;;;;;;;;5012961;28;45574;-71
2022/03/14 07:16:55;;;;;;;;;9.50;9.00;;;;;;;;5015974;28;45661;-72
2022/03/14 07:19:21;;;;;;;;;8.00;7.00;;;;;;;;5015520;28;46881;-71
2022/03/14 07:21:46;;;;;;;;;8.00;7.00;;;;;;;;5013430;28;45856;-70
2022/03/14 07:24:11;;;;;;;;;7.50;4.50;;;;;;;;5013295;28;45453;-70
2022/03/14 07:26:36;;;;;;;;;11.00;7.00;;;;;;;;5011899;28;45463;-70
2022/03/14 07:29:02;;;;;;;;;7.50;5.75;;;;;;;;5009652;28;47596;-69
2022/03/14 07:31:27;;;;;;;;;12.75;9.00;;;;;;;;5009799;28;45408;-69
2022/03/14 07:33:52;;;;;;;;;13.00;10.75;;;;;;;;5008621;28;45551;-70
2022/03/14 07:36:18;;;;;;;;;9.00;8.00;;;;;;;;5011617;28;45455;-69
2022/03/14 07:38:44;;;;;;;;;10.75;8.50;;;;;;;;5012687;28;45606;-66
2022/03/14 07:41:10;;;;;;;;;9.00;9.00;;;;;;;;5010859;28;45457;-66
2022/03/14 07:43:35;;;;;;;;;10.00;10.00;;;;;;;;5009854;28;45469;-67
2022/03/14 07:46:01;;;;;;;;;12.50;8.50;;;;;;;;5012212;28;45874;-66
2022/03/14 07:48:27;;;;;;;;;9.75;9.75;;;;;;;;5013171;28;47544;-67
2022/03/14 07:50:52;;;;;;;;;8.00;4.75;;;;;;;;5016240;28;45363;-67
2022/03/14 07:53:17;;;;;;;;;8.00;7.25;;;;;;;;5013081;28;45826;-67
2022/03/14 07:55:43;;;;;;;;;10.75;8.50;;;;;;;;5012998;28;45725;-68
2022/03/14 07:58:08;;;;;;;;;11.00;8.75;;;;;;;;5011620;28;48290;-67
2022/03/14 08:00:33;;;;;;;;;9.25;7.25;;;;;;;;5013038;28;47705;-67
2022/03/14 08:02:59;;;;;;;;;12.25;11.25;;;;;;;;5016323;28;45437;-67
2022/03/14 08:05:24;;;;;;;;;8.50;5.75;;;;;;;;5012657;28;45356;-67
2022/03/14 08:07:50;;;;;;;;;7.50;7.50;;;;;;;;5012848;28;47452;-67
2022/03/14 08:10:17;;;;;;;;;8.50;7.50;;;;;;;;5012587;28;45534;-66
2022/03/14 08:12:49;;;;;;;;;11.75;9.50;;;;;;;;5012823;28;45649;-66
2022/03/14 08:15:20;;;;;;;;;10.00;8.75;;;;;;;;5013820;28;45469;-67
2022/03/14 08:17:46;;;;;;;;;2.25;2.00;;;;;;;;5015801;28;45517;-68
2022/03/14 08:20:11;;;;;;;;;6.00;5.25;;;;;;;;5012478;28;45858;-68
2022/03/14 08:22:36;;;;;;;;;9.00;5.75;;;;;;;;5012549;28;45539;-67
2022/03/14 08:25:02;;;;;;;;;9.00;6.25;;;;;;;;5012421;28;45429;-67
2022/03/14 08:27:27;;;;;;;;;9.00;6.25;;;;;;;;5012571;28;45624;-66
2022/03/14 08:29:52;;;;;;;;;9.50;8.25;;;;;;;;5014171;28;46328;-68
2022/03/14 08:32:18;;;;;;;;;7.00;5.00;;;;;;;;5013197;28;45967;-67
2022/03/14 08:34:44;;;;;;;;;8.25;5.50;;;;;;;;5013837;28;45374;-68
2022/03/14 08:37:09;;;;;;;;;9.00;7.00;;;;;;;;5013490;28;46389;-66
2022/03/14 08:39:34;;;;;;;;;6.75;6.25;;;;;;;;5010782;28;45549;-65
2022/03/14 08:41:59;;;;;;;;;6.50;5.25;;;;;;;;5014105;28;45389;-68
2022/03/14 08:44:25;;;;;;;;;9.75;7.75;;;;;;;;5013659;28;45416;-67
2022/03/14 08:46:50;;;;;;;;;8.25;8.25;;;;;;;;5012144;28;48655;-67
2022/03/14 08:49:15;;;;;;;;;9.00;9.00;;;;;;;;5013645;28;45359;-68
2022/03/14 08:51:41;;;;;;;;;7.75;7.75;;;;;;;;5010898;28;45393;-68
2022/03/14 08:54:06;;;;;;;;;10.25;7.25;;;;;;;;5013833;28;45411;-68
2022/03/14 08:56:32;;;;;;;;;5.50;4.50;;;;;;;;5011298;28;47459;-68
2022/03/14 08:58:57;;;;;;;;;7.75;5.25;;;;;;;;5012686;28;45725;-68
2022/03/14 09:01:22;;;;;;;;;13.25;8.75;;;;;;;;5013505;28;45553;-70
2022/03/14 09:03:48;;;;;;;;;4.25;4.00;;;;;;;;5013567;28;45522;-70
2022/03/14 09:06:13;;;;;;;;;8.00;4.75;;;;;;;;5014586;28;47287;-70
2022/03/14 09:08:39;;;;;;;;;7.50;5.50;;;;;;;;5014000;28;45525;-70
2022/03/14 09:11:04;;;;;;;;;6.50;5.25;;;;;;;;5013324;28;45647;-71
2022/03/14 09:13:29;;;;;;;;;8.75;6.25;;;;;;;;5011578;28;45318;-69
2022/03/14 09:15:55;;;;;;;;;8.00;4.00;;;;;;;;5011720;28;47417;-68
2022/03/14 09:18:21;;;;;;;;;8.00;6.00;;;;;;;;5012078;28;45350;-69
2022/03/14 09:20:48;;;;;;;;;8.50;5.25;;;;;;;;5011583;28;45453;-70
2022/03/14 09:23:13;;;;;;;;;8.50;5.00;;;;;;;;5011383;28;45571;-70
2022/03/14 09:25:38;;;;;;;;;6.33;6.33;;;;;;;;5011865;28;46356;-69
2022/03/14 09:28:04;;;;;;;;;6.00;6.00;;;;;;;;5011125;28;45472;-70
2022/03/14 09:30:29;;;;;;;;;7.75;5.00;;;;;;;;5010748;28;45529;-69
2022/03/14 09:32:55;;;;;;;;;6.50;5.00;;;;;;;;5012307;28;45484;-69
2022/03/14 09:35:21;;;;;;;;;6.00;4.25;;;;;;;;5010372;28;48484;-71
2022/03/14 09:37:46;;;;;;;;;5.50;3.75;;;;;;;;5013088;28;45390;-71
2022/03/14 09:40:14;;;;;;;;;5.25;4.25;;;;;;;;5012067;28;47128;-71
2022/03/14 09:42:40;;;;;;;;;3.25;3.25;;;;;;;;5013299;28;45421;-71
2022/03/14 09:45:06;;;;;;;;;4.00;4.00;;;;;;;;5014659;28;45843;-71
2022/03/14 09:47:39;;;;;;;;;4.50;4.50;;;;;;;;5011062;28;45300;-70
2022/03/14 09:50:08;;;;;;;;;5.00;5.00;;;;;;;;5012695;28;46480;-70
2022/03/14 09:52:35;;;;;;;;;5.00;5.00;;;;;;;;5012385;28;45473;-69
2022/03/14 09:55:00;;;;;;;;;5.25;5.00;;;;;;;;5010867;28;48017;-70
2022/03/14 09:57:26;;;;;;;;;6.00;4.75;;;;;;;;5011215;28;45661;-69
2022/03/14 09:59:52;;;;;;;;;6.00;6.00;;;;;;;;5013031;28;45343;-70
2022/03/14 10:02:18;;;;;;;;;9.50;7.25;;;;;;;;5010890;28;45910;-69
2022/03/14 10:04:43;;;;;;;;;5.25;5.00;;;;;;;;5010105;28;48533;-68
2022/03/14 10:07:08;;;;;;;;;6.50;5.00;;;;;;;;5012147;28;45441;-68
2022/03/14 10:09:34;;;;;;;;;7.00;5.75;;;;;;;;5009427;28;45391;-69
2022/03/14 10:12:00;;;;;;;;;7.00;6.00;;;;;;;;5012682;28;45493;-69
2022/03/14 10:14:25;;;;;;;;;10.25;5.00;;;;;;;;5011906;28;46070;-70
2022/03/14 10:16:54;;;;;;;;;9.00;7.50;;;;;;;;5010858;28;45941;-70
2022/03/14 10:19:20;;;;;;;;;7.00;7.00;;;;;;;;5012466;28;45451;-69
2022/03/14 10:21:46;;;;;;;;;5.00;4.50;;;;;;;;5010605;28;45775;-69
2022/03/14 10:24:12;;;;;;;;;6.50;6.25;;;;;;;;5012037;28;47039;-68
2022/03/14 10:26:42;;;;;;;;;7.75;6.75;;;;;;;;5011820;28;45651;-68
2022/03/14 10:29:10;;;;;;;;;9.00;8.50;;;;;;;;5011373;28;45556;-69
2022/03/14 10:31:43;;;;;;;;;9.75;7.75;;;;;;;;5011863;28;45519;-69
2022/03/14 10:34:10;;;;;;;;;6.50;6.00;;;;;;;;5010195;28;47681;-69
2022/03/14 10:36:50;;;;;;;;;11.00;8.75;;;;;;;;4994787;28;45902;-70
2022/03/14 10:39:17;;;;;;;;;6.00;6.00;;;;;;;;5008881;28;45768;-70
2022/03/14 10:41:44;;;;;;;;;7.25;5.00;;;;;;;;5012857;28;45485;-68
2022/03/14 10:44:10;;;;;;;;;8.75;8.00;;;;;;;;5008700;28;46470;-70
2022/03/14 10:46:41;;;;;;;;;10.00;8.75;;;;;;;;5010103;28;45489;-69
2022/03/14 10:49:09;;;;;;;;;5.50;5.25;;;;;;;;5008867;28;45530;-69
2022/03/14 10:51:50;;;;;;;;;6.50;6.00;;;;;;;;4994728;28;45558;-69
2022/03/14 10:54:16;;;;;;;;;8.00;5.75;;;;;;;;5024994;28;49043;-69
2022/03/14 10:56:41;;;;;;;;;7.25;6.00;;;;;;;;5012616;28;45497;-70
2022/03/14 10:59:07;;;;;;;;;7.25;6.00;;;;;;;;5012221;28;45462;-69
2022/03/14 11:01:32;;;;;;;;;6.00;5.00;;;;;;;;5011402;28;45496;-70
2022/03/14 11:03:57;;;;;;;;;9.00;7.25;;;;;;;;5011493;28;46121;-69
2022/03/14 11:06:23;;;;;;;;;6.75;6.50;;;;;;;;5010905;28;45583;-68
2022/03/14 11:08:50;;;;;;;;;7.00;7.00;;;;;;;;5012622;28;45488;-69
2022/03/14 11:11:16;;;;;;;;;7.50;7.50;;;;;;;;5010143;28;45421;-69
2022/03/14 11:13:43;;;;;;;;;11.00;9.00;;;;;;;;5013126;28;48488;-68
2022/03/14 11:16:20;;;;;;;;;12.75;10.50;;;;;;;;5012036;28;46080;-67
2022/03/14 11:18:46;;;;;;;;;6.25;6.25;;;;;;;;4998916;28;45355;-69
2022/03/14 11:21:15;;;;;;;;;3.50;3.50;;;;;;;;5015457;28;45602;-69
2022/03/14 11:23:44;;;;;;;;;5.50;5.50;;;;;;;;5016677;28;47389;-68
2022/03/14 11:26:10;;;;;;;;;5.75;5.50;;;;;;;;5016579;28;45461;-69
2022/03/14 11:28:38;;;;;;;;;5.25;5.25;;;;;;;;5014767;28;45307;-69
2022/03/14 11:31:03;;;;;;;;;6.25;4.00;;;;;;;;5015076;28;45452;-69
2022/03/14 11:33:30;;;;;;;;;8.25;5.50;;;;;;;;5015792;28;45742;-69
2022/03/14 11:35:55;;;;;;;;;9.25;6.75;;;;;;;;5018061;28;45403;-69
2022/03/14 11:38:20;;;;;;;;;8.00;7.75;;;;;;;;5016341;28;45267;-69
2022/03/14 11:40:48;;;;;;;;;5.75;5.00;;;;;;;;5015134;28;45294;-70
2022/03/14 11:43:13;;;;;;;;;8.00;6.75;;;;;;;;5014189;28;47982;-70
2022/03/14 11:45:40;;;;;;;;;8.75;6.75;;;;;;;;5016416;28;45311;-69
2022/03/14 11:48:05;;;;;;;;;7.25;5.00;;;;;;;;5017041;28;45959;-68
2022/03/14 11:50:44;;;;;;;;;6.25;5.50;;;;;;;;5016133;28;45571;-68
2022/03/14 11:53:09;;;;;;;;;5.50;5.00;;;;;;;;5015552;28;45682;-68
2022/03/14 11:55:35;;;;;;;;;7.75;6.00;;;;;;;;5016674;28;45474;-69
2022/03/14 11:58:00;;;;;;;;;4.00;3.00;;;;;;;;5016382;28;45765;-70
2022/03/14 12:00:27;;;;;;;;;3.00;3.00;;;;;;;;5015869;28;45271;-69
2022/03/14 12:02:56;;;;;;;;;2.00;2.00;;;;;;;;5018106;28;45702;-70
2022/03/14 12:05:42;;;;;;;;;4.25;3.00;;;;;;;;5015209;28;45316;-69
2022/03/14 12:08:27;;;;;;;;;4.00;2.00;;;;;;;;5013068;28;45915;-70
2022/03/14 12:10:52;;;;;;;;;4.00;3.00;;;;;;;;5013992;28;45839;-69
2022/03/14 12:13:36;;;;;;;;;2.50;2.50;;;;;;;;5014789;28;46139;-69
2022/03/14 12:16:01;;;;;;;;;3.25;3.00;;;;;;;;5016442;28;45561;-69
2022/03/14 12:18:36;;;;;;;;;4.50;3.00;;;;;;;;5014884;28;45429;-69
2022/03/14 12:21:04;;;;;;;;;4.25;2.00;;;;;;;;5016820;28;45334;-69
2022/03/14 12:23:30;;;;;;;;;4.00;3.00;;;;;;;;5014028;28;48195;-68
2022/03/14 12:25:57;;;;;;;;;4.25;3.00;;;;;;;;5014014;28;45834;-64
2022/03/14 12:28:26;;;;;;;;;3.75;3.75;;;;;;;;5015348;28;45346;-65
2022/03/14 12:30:56;;;;;;;;;5.00;3.50;;;;;;;;5014163;28;45468;-65
2022/03/14 12:33:38;;;;;;;;;3.75;2.50;;;;;;;;5013128;28;48448;-65
2022/03/14 12:36:25;;;;;;;;;3.00;2.25;;;;;;;;5015772;28;45492;-66
2022/03/14 12:39:06;;;;;;;;;4.50;4.25;;;;;;;;5015994;28;45386;-65
2022/03/14 12:41:32;;;;;;;;;5.75;2.00;;;;;;;;5013335;28;45593;-65
2022/03/14 12:43:57;;;;;;;;;2.50;2.25;;;;;;;;5013641;28;47867;-65
2022/03/14 12:46:24;;;;;;;;;4.00;2.25;;;;;;;;5012548;28;45335;-65
2022/03/14 12:48:54;;;;;;;;;2.50;2.25;;;;;;;;5015227;28;45584;-66
2022/03/14 12:51:26;;;;;;;;;3.00;3.00;;;;;;;;5014919;28;45475;-65
2022/03/14 12:53:58;;;;;;;;;4.00;3.50;;;;;;;;5014063;28;48507;-65
2022/03/14 12:56:25;;;;;;;;;2.25;1.75;;;;;;;;5015054;28;45781;-65
2022/03/14 12:58:55;;;;;;;;;2.25;2.25;;;;;;;;5013926;28;45490;-66
2022/03/14 13:01:21;;;;;;;;;3.25;3.25;;;;;;;;5014484;28;45441;-66
2022/03/14 13:03:47;;;;;;;;;6.00;2.50;;;;;;;;5013230;28;48544;-66
2022/03/14 13:06:12;;;;;;;;;5.00;3.00;;;;;;;;5016558;28;45362;-67
2022/03/14 13:08:47;;;;;;;;;3.75;3.75;;;;;;;;5015861;28;45409;-66
2022/03/14 13:11:13;;;;;;;;;4.00;2.75;;;;;;;;5012925;28;45787;-66
2022/03/14 13:13:38;;;;;;;;;4.75;3.50;;;;;;;;5012603;28;48761;-67
2022/03/14 13:16:16;;;;;;;;;3.25;2.25;;;;;;;;5015017;28;45393;-66
2022/03/14 13:18:45;;;;;;;;;3.00;2.75;;;;;;;;4998751;28;45320;-66
2022/03/14 13:21:14;;;;;;;;;5.00;1.25;;;;;;;;5015830;28;45527;-65
2022/03/14 13:23:40;;;;;;;;;3.50;2.25;;;;;;;;5015164;28;46082;-65
2022/03/14 13:26:05;;;;;;;;;3.00;3.00;;;;;;;;5014505;28;45445;-64
2022/03/14 13:28:31;;;;;;;;;3.75;3.00;;;;;;;;5014495;28;45930;-65
2022/03/14 13:30:58;;;;;;;;;3.00;3.00;;;;;;;;5011600;28;45402;-63
2022/03/14 13:33:26;;;;;;;;;4.00;3.00;;;;;;;;5013023;28;47670;-65
2022/03/14 13:35:52;;;;;;;;;5.25;1.25;;;;;;;;5015290;28;45545;-64
2022/03/14 13:38:36;;;;;;;;;4.00;2.75;;;;;;;;5012937;28;45893;-66
2022/03/14 13:41:02;;;;;;;;;4.25;2.00;;;;;;;;5013708;28;45446;-66
2022/03/14 13:43:27;;;;;;;;;2.25;2.25;;;;;;;;5011678;28;48507;-66
2022/03/14 13:46:12;;;;;;;;;3.00;2.75;;;;;;;;5011529;28;45650;-66
2022/03/14 13:48:48;;;;;;;;;3.00;2.00;;;;;;;;5012741;28;45319;-66
2022/03/14 13:51:13;;;;;;;;;2.75;1.25;;;;;;;;5015554;28;45405;-66
2022/03/14 13:53:44;;;;;;;;;3.00;2.50;;;;;;;;5013328;28;46464;-66
2022/03/14 13:56:09;;;;;;;;;2.50;2.50;;;;;;;;5012825;28;45429;-67
2022/03/14 13:58:36;;;;;;;;;2.50;1.00;;;;;;;;5012938;28;45453;-65
2022/03/14 14:01:01;;;;;;;;;2.50;1.25;;;;;;;;5012587;28;45271;-65
2022/03/14 14:03:30;;;;;;;;;1.00;1.00;;;;;;;;5013770;28;46480;-66
2022/03/14 14:05:55;;;;;;;;;2.00;1.75;;;;;;;;5013934;28;45508;-65
2022/03/14 14:08:34;;;;;;;;;3.25;3.25;;;;;;;;5014009;28;45361;-65
2022/03/14 14:10:59;;;;;;;;;3.25;2.00;;;;;;;;5012549;28;45382;-65
2022/03/14 14:13:25;;;;;;;;;2.75;2.00;;;;;;;;5012294;28;48626;-65
2022/03/14 14:15:51;;;;;;;;;2.00;2.00;;;;;;;;5012187;28;45403;-65
2022/03/14 14:18:18;;;;;;;;;2.00;2.00;;;;;;;;5014817;28;45346;-65
2022/03/14 14:20:43;;;;;;;;;4.75;2.75;;;;;;;;5015488;28;45456;-64
2022/03/14 14:23:13;;;;;;;;;4.75;3.00;;;;;;;;5012146;28;48544;-66
2022/03/14 14:25:43;;;;;;;;;4.50;4.00;;;;;;;;5012491;28;46062;-64
2022/03/14 14:28:09;;;;;;;;;2.00;2.00;;;;;;;;5012109;28;45537;-64
2022/03/14 14:30:39;;;;;;;;;5.00;2.25;;;;;;;;4996500;28;45638;-64
2022/03/14 14:33:10;;;;;;;;;3.25;3.25;;;;;;;;5011120;28;46483;-65
2022/03/14 14:35:36;;;;;;;;;4.50;3.00;;;;;;;;5012766;28;46576;-64
2022/03/14 14:38:04;;;;;;;;;3.25;3.25;;;;;;;;5011069;28;45640;-63
2022/03/14 14:40:30;;;;;;;;;3.75;2.25;;;;;;;;5011742;28;45618;-66